Time;durP1;ratioP1;P1;durP2;ratioP2;P2;SDS_P1;SDS_P2;PMS_P1;PMS_P2;Temp;Humidity;BMP_temperature;BMP_pressure;BME280_temperature;BME280_humidity;BME280_pressure;Samples;Min_cycle;Max_cycle;Signal;HPM_P1;HPM_P2
2022/12/25 00:00:07;;;;;;;11.68;2.00;;;;;;;10.54;59.76;100102.63;4311662;33;20141;-90
2022/12/25 00:02:32;;;;;;;5.28;1.50;;;;;;;10.58;59.77;100096.44;4311504;33;20177;-91
2022/12/25 00:04:57;;;;;;;8.85;1.37;;;;;;;10.60;59.76;100112.88;4311389;33;20104;-90
2022/12/25 00:07:23;;;;;;;7.25;2.33;;;;;;;10.56;59.77;100105.19;4311234;33;20154;-93
2022/12/25 00:09:48;;;;;;;9.52;1.80;;;;;;;10.56;59.77;100118.19;4335444;33;20184;-95
2022/12/25 00:12:14;;;;;;;2.70;1.23;;;;;;;10.53;59.76;100113.06;4324843;33;20120;-96
2022/12/25 00:14:39;;;;;;;4.28;1.60;;;;;;;10.49;59.76;100116.66;4335552;33;20135;-96
2022/12/25 00:17:04;;;;;;;6.03;1.45;;;;;;;10.38;59.75;100132.53;4335861;33;20104;-96
2022/12/25 00:19:30;;;;;;;2.92;1.73;;;;;;;10.30;59.75;100131.87;4335923;33;20196;-96
2022/12/25 00:21:55;;;;;;;6.72;1.73;;;;;;;10.46;59.75;100133.22;4335731;33;20115;-95
2022/12/25 00:24:21;;;;;;;4.35;1.50;;;;;;;10.43;59.76;100125.47;4335759;33;20475;-94
2022/12/25 00:26:46;;;;;;;5.05;1.58;;;;;;;10.36;59.75;100129.97;4311277;33;20407;-95
2022/12/25 00:29:12;;;;;;;3.67;1.67;;;;;;;10.34;59.75;100133.50;4335751;33;20158;-95
2022/12/25 00:31:38;;;;;;;6.72;2.47;;;;;;;10.52;59.76;100148.66;4313891;33;20104;-95
2022/12/25 00:34:03;;;;;;;8.10;2.05;;;;;;;10.71;59.77;100144.69;4311243;33;20103;-96
2022/12/25 00:36:29;;;;;;;5.97;2.35;;;;;;;10.61;59.76;100150.16;4311216;33;20173;-95
2022/12/25 00:38:54;;;;;;;4.70;2.92;;;;;;;10.25;59.75;100145.00;4311383;33;20171;-96
2022/12/25 00:42:17;;;;;;;6.60;2.65;;;;;;;10.10;59.74;100156.59;4311219;33;20441;-95
2022/12/25 00:44:08;;;;;;;8.02;2.30;;;;;;;10.25;59.75;100155.41;4325897;33;20134;-96
2022/12/25 00:46:33;;;;;;;9.13;3.08;;;;;;;10.25;59.75;100155.41;4311753;33;20076;-95
2022/12/25 00:48:59;;;;;;;4.28;2.17;;;;;;;10.21;59.74;100168.53;4311059;33;20150;-94
2022/12/25 00:51:26;;;;;;;6.95;2.20;;;;;;;10.24;59.74;100176.25;4313534;33;20162;-96
2022/12/25 00:53:52;;;;;;;6.37;2.35;;;;;;;10.25;59.75;100178.81;4330751;33;20104;-96
2022/12/25 00:56:17;;;;;;;6.20;2.12;;;;;;;10.11;59.74;100179.09;4315882;33;20114;-95
2022/12/25 00:58:43;;;;;;;4.82;2.10;;;;;;;10.19;59.75;100180.69;4336414;33;20107;-96
2022/12/25 01:01:12;;;;;;;9.90;3.17;;;;;;;10.20;59.74;100178.06;4311473;33;20153;-96
2022/12/25 01:03:37;;;;;;;10.13;2.50;;;;;;;10.13;59.74;100166.06;4335538;33;20084;-96
2022/12/25 01:06:04;;;;;;;8.73;2.17;;;;;;;10.03;59.73;100156.78;4335586;33;20522;-96
2022/12/25 01:08:31;;;;;;;3.90;1.75;;;;;;;10.11;59.74;100167.84;4323038;33;20119;-96
2022/12/25 01:10:58;;;;;;;4.28;2.08;;;;;;;9.99;59.73;100170.75;4323430;33;20153;-96
2022/12/25 01:13:24;;;;;;;8.40;2.28;;;;;;;10.07;59.74;100176.63;4337382;33;20103;-96
2022/12/25 01:15:51;;;;;;;9.93;2.15;;;;;;;10.04;59.74;100179.28;4335800;33;20138;-96
2022/12/25 01:18:17;;;;;;;5.70;1.92;;;;;;;9.96;59.73;100183.81;4311092;33;20115;-96
2022/12/25 01:20:43;;;;;;;6.55;1.83;;;;;;;9.90;59.73;100184.78;4311009;33;20119;-96
2022/12/25 01:23:08;;;;;;;7.62;2.65;;;;;;;10.07;59.74;100179.22;4311091;33;20422;-94
2022/12/25 01:25:34;;;;;;;6.75;3.40;;;;;;;10.03;59.74;100186.25;4310861;33;20385;-95
2022/12/25 01:27:59;;;;;;;8.20;3.17;;;;;;;10.19;59.75;100178.94;4310836;33;20091;-95
2022/12/25 01:30:25;;;;;;;7.25;3.10;;;;;;;10.00;59.73;100173.31;4335138;33;20125;-95
2022/12/25 01:32:50;;;;;;;7.57;3.05;;;;;;;9.87;59.73;100174.47;4310814;33;20155;-94
2022/12/25 01:35:15;;;;;;;5.87;2.85;;;;;;;10.04;59.74;100171.47;4310569;33;20723;-93
2022/12/25 01:37:41;;;;;;;7.12;2.78;;;;;;;10.16;59.75;100182.44;4310750;33;20223;-93
2022/12/25 01:40:07;;;;;;;8.13;2.80;;;;;;;9.80;59.73;100189.34;4310825;33;20206;-94
2022/12/25 01:42:32;;;;;;;7.53;3.30;;;;;;;9.83;59.72;100196.22;4310695;33;20118;-96
2022/12/25 01:45:24;;;;;;;7.30;3.28;;;;;;;9.84;59.72;100192.72;4310855;33;20095;-95
2022/12/25 01:47:49;;;;;;;7.93;2.72;;;;;;;9.75;59.72;100195.53;4330772;33;20123;-95
2022/12/25 01:50:15;;;;;;;8.00;2.30;;;;;;;9.80;59.73;100191.94;4312587;33;20174;-95
2022/12/25 01:52:40;;;;;;;6.62;2.17;;;;;;;9.66;59.72;100195.72;4311121;33;20121;-95
2022/12/25 01:55:08;;;;;;;8.48;2.80;;;;;;;9.46;59.70;100197.00;4310999;33;20108;-96
2022/12/25 01:57:34;;;;;;;3.85;2.00;;;;;;;9.49;59.71;100202.16;4311546;33;20457;-95
2022/12/25 02:00:00;;;;;;;6.50;2.05;;;;;;;9.57;59.70;100195.94;4311207;33;20129;-96
2022/12/25 02:02:26;;;;;;;3.65;1.70;;;;;;;9.69;59.72;100193.06;4311341;33;20096;-96
2022/12/25 02:05:19;;;;;;;5.05;1.98;;;;;;;9.67;59.72;100193.09;4310690;33;20110;-95
2022/12/25 02:07:44;;;;;;;5.62;2.28;;;;;;;9.79;59.73;100191.97;4323263;33;20103;-96
2022/12/25 02:10:10;;;;;;;7.05;1.80;;;;;;;9.66;59.72;100196.56;4314485;33;20148;-95
2022/12/25 02:12:36;;;;;;;5.97;1.92;;;;;;;9.64;59.71;100194.91;4312338;33;20095;-94
2022/12/25 02:15:06;;;;;;;6.07;1.90;;;;;;;9.63;59.71;100190.59;4312062;33;20096;-95
2022/12/25 02:17:37;;;;;;;;;;;;;;;9.66;59.72;100190.53;4324391;33;20154;-95
2022/12/25 02:20:34;;;;;;;4.10;1.60;;;;;;;9.68;59.71;100200.00;4324054;33;19999;-94
2022/12/25 02:23:33;;;;;;;5.00;1.70;;;;;;;9.31;59.69;100194.72;4336347;33;20106;-95
2022/12/25 02:26:37;;;;;;;8.40;1.73;;;;;;;9.54;59.71;100192.50;4324152;33;20096;-95
2022/12/25 02:29:04;;;;;;;6.57;1.98;;;;;;;9.51;59.71;100192.56;4336826;33;20175;-94
2022/12/25 02:31:48;;;;;;;5.97;2.00;;;;;;;9.68;59.72;100193.94;4326156;33;20129;-95
2022/12/25 02:34:20;;;;;;;7.43;1.73;;;;;;;9.68;59.72;100197.41;4311903;33;20157;-93
2022/12/25 02:37:14;;;;;;;3.90;1.77;;;;;;;9.64;59.71;100189.69;4324173;33;20083;-93
2022/12/25 02:39:59;;;;;;;3.47;1.50;;;;;;;9.89;59.73;100200.44;4322976;33;20162;-95
2022/12/25 03:07:36;;;;;;;4.12;1.62;;;;;;;10.02;59.74;100223.53;4328434;33;20527;-91
2022/12/25 03:12:53;;;;;;;13.90;2.20;;;;;;;9.91;59.73;100237.66;4326087;33;20714;-92
2022/12/25 03:18:05;;;;;;;4.03;1.77;;;;;;;9.81;59.73;100244.81;4325275;33;20109;-92
2022/12/25 03:28:46;;;;;;;5.28;1.73;;;;;;;10.01;59.72;100237.44;4328320;33;20110;-92
2022/12/25 03:31:15;;;;;;;3.17;1.60;;;;;;;10.12;59.74;100243.25;4311668;33;20100;-91
2022/12/25 04:36:08;;;;;;;8.13;2.17;;;;;;;10.15;59.74;100269.19;4325280;33;20525;-92
2022/12/25 04:38:34;;;;;;;6.85;2.08;;;;;;;10.02;59.73;100270.34;4312306;33;20096;-93
2022/12/25 04:40:59;;;;;;;9.45;2.00;;;;;;;10.09;59.73;100265.88;4323213;33;20109;-92
2022/12/25 04:43:25;;;;;;;8.20;1.77;;;;;;;10.18;59.75;100262.22;4335527;33;20151;-93
2022/12/25 04:45:54;;;;;;;6.45;2.97;;;;;;;10.10;59.74;100265.84;4311141;33;20118;-93
2022/12/25 04:48:20;;;;;;;8.50;2.20;;;;;;;10.04;59.74;100258.16;4311172;33;20449;-93
2022/12/25 04:50:47;;;;;;;6.85;2.60;;;;;;;10.11;59.74;100262.34;4325332;33;20129;-96
2022/12/25 04:53:14;;;;;;;8.18;2.25;;;;;;;10.10;59.74;100268.44;4318827;33;20119;-95
2022/12/25 04:55:42;;;;;;;5.82;2.00;;;;;;;10.10;59.74;100270.19;4345605;33;20087;-96
2022/12/25 04:58:08;;;;;;;4.53;2.10;;;;;;;10.00;59.73;100266.94;4343738;33;20085;-95
2022/12/25 05:00:37;;;;;;;7.50;1.98;;;;;;;10.10;59.74;100277.97;4319417;33;20103;-96
2022/12/25 05:03:23;;;;;;;7.90;1.95;;;;;;;10.06;59.74;100277.19;4316801;33;20119;-96
2022/12/25 05:05:49;;;;;;;6.28;2.10;;;;;;;9.99;59.73;100286.03;4337372;33;20146;-92
2022/12/25 05:08:15;;;;;;;8.52;2.35;;;;;;;9.94;59.74;100272.28;4310768;33;20121;-94
2022/12/25 05:10:40;;;;;;;5.75;2.67;;;;;;;9.78;59.71;100268.25;4311078;33;20142;-95
2022/12/25 05:13:06;;;;;;;7.93;1.98;;;;;;;9.61;59.71;100275.53;4323017;33;20158;-95
2022/12/25 05:15:31;;;;;;;5.25;1.62;;;;;;;9.74;59.72;100272.69;4323136;33;20104;-95
2022/12/25 05:17:56;;;;;;;8.52;2.08;;;;;;;9.53;59.71;100273.09;4310788;33;20125;-94
2022/12/25 05:20:22;;;;;;;7.18;3.42;;;;;;;9.54;59.71;100285.22;4311073;33;20129;-94
2022/12/25 05:22:47;;;;;;;6.22;2.05;;;;;;;9.58;59.71;100294.66;4311243;33;20099;-94
2022/12/25 05:25:13;;;;;;;6.97;1.83;;;;;;;9.64;59.71;100296.28;4310683;33;20083;-93
2022/12/25 05:27:38;;;;;;;4.72;2.03;;;;;;;9.34;59.70;100290.78;4335212;33;20087;-92
2022/12/25 05:30:04;;;;;;;10.57;2.45;;;;;;;9.38;59.70;100297.63;4334684;33;20163;-92
2022/12/25 05:32:30;;;;;;;6.28;1.85;;;;;;;9.48;59.70;100287.94;4310796;33;20111;-93
2022/12/25 05:34:55;;;;;;;7.65;2.30;;;;;;;9.46;59.70;100293.16;4310335;33;20131;-93
2022/12/25 05:37:21;;;;;;;7.32;1.83;;;;;;;9.40;59.70;100297.59;4311861;33;20160;-95
2022/12/25 05:39:46;;;;;;;5.87;2.00;;;;;;;9.41;59.69;100294.09;4310100;33;20131;-95
2022/12/25 05:42:11;;;;;;;10.43;3.10;;;;;;;9.52;59.70;100287.84;4309498;33;20104;-92
2022/12/25 05:44:37;;;;;;;9.02;2.53;;;;;;;9.44;59.70;100294.91;4334458;33;20072;-91
2022/12/25 05:47:02;;;;;;;6.85;2.45;;;;;;;9.72;59.72;100295.25;4310063;33;20087;-94
2022/12/25 05:49:28;;;;;;;6.62;2.50;;;;;;;9.68;59.72;100301.37;4310311;33;20630;-92
2022/12/25 05:51:53;;;;;;;7.25;3.10;;;;;;;9.66;59.72;100304.87;4310277;33;20088;-95
2022/12/25 05:54:19;;;;;;;6.12;2.87;;;;;;;9.28;59.70;100310.81;4322719;33;20121;-94
2022/12/25 05:56:44;;;;;;;5.72;2.58;;;;;;;9.36;59.70;100311.53;4322637;33;20478;-94
2022/12/25 05:59:09;;;;;;;7.78;3.53;;;;;;;9.21;59.69;100310.91;4310448;33;20182;-93
2022/12/25 06:01:35;;;;;;;8.45;3.25;;;;;;;9.25;59.69;100311.72;4310273;33;20125;-90
2022/12/25 06:04:00;;;;;;;10.27;3.10;;;;;;;9.29;59.69;100313.38;4334456;33;20127;-92
2022/12/25 06:06:26;;;;;;;8.10;2.75;;;;;;;9.34;59.70;100302.91;4334708;33;20362;-94
2022/12/25 06:08:54;;;;;;;4.45;2.55;;;;;;;9.31;59.69;100308.16;4310269;33;20088;-91
2022/12/25 06:11:20;;;;;;;13.05;3.08;;;;;;;9.09;59.68;100308.53;4310161;33;20165;-92
2022/12/25 06:13:48;;;;;;;7.03;2.40;;;;;;;8.98;59.68;100313.03;4309875;33;20448;-91
2022/12/25 06:16:44;;;;;;;5.53;2.37;;;;;;;8.84;59.67;100304.63;4321703;33;20092;-92
2022/12/25 06:19:10;;;;;;;5.43;2.42;;;;;;;8.81;59.66;100292.56;4321833;33;20099;-88
2022/12/25 06:21:35;;;;;;;10.70;2.85;;;;;;;8.81;59.66;100297.75;4309793;33;20091;-89
2022/12/25 06:24:01;;;;;;;4.03;2.00;;;;;;;8.85;59.67;100301.16;4309634;33;20125;-89
2022/12/25 06:26:26;;;;;;;8.25;2.70;;;;;;;8.71;59.66;100306.53;4309915;33;20111;-88
2022/12/25 06:28:52;;;;;;;7.75;3.25;;;;;;;8.72;59.66;100303.06;4308541;33;20104;-86
2022/12/25 06:31:19;;;;;;;5.05;2.20;;;;;;;8.65;59.66;100306.66;4331620;33;20163;-85
2022/12/25 06:33:44;;;;;;;5.03;2.03;;;;;;;8.75;59.67;100302.16;4307903;33;20083;-85
2022/12/25 06:36:12;;;;;;;6.80;2.70;;;;;;;8.68;59.66;100300.56;4332437;33;20504;-86
2022/12/25 06:38:37;;;;;;;6.32;2.35;;;;;;;8.66;59.66;100310.09;4320096;33;20100;-86
2022/12/25 06:41:07;;;;;;;9.18;3.10;;;;;;;8.76;59.67;100314.28;4307813;33;20138;-85
2022/12/25 06:43:32;;;;;;;8.05;2.40;;;;;;;8.53;59.66;100327.59;4320242;33;20397;-86
2022/12/25 06:46:11;;;;;;;12.93;2.53;;;;;;;8.50;59.65;100330.22;4320458;33;20110;-86
2022/12/25 06:48:37;;;;;;;5.25;1.55;;;;;;;8.43;59.64;100338.97;4320582;33;20104;-86
2022/12/25 06:51:03;;;;;;;10.20;2.90;;;;;;;8.45;59.65;100342.41;4320621;33;20115;-85
2022/12/25 06:53:28;;;;;;;7.47;2.83;;;;;;;8.34;59.64;100347.75;4332403;33;20084;-86
2022/12/25 06:56:00;;;;;;;9.32;4.05;;;;;;;8.37;59.65;100345.13;4334372;33;20112;-86
2022/12/25 06:58:27;;;;;;;8.73;2.30;;;;;;;8.23;59.64;100358.22;4310238;33;20108;-85
2022/12/25 07:00:52;;;;;;;6.97;2.95;;;;;;;8.32;59.64;100354.66;4334719;33;20126;-85
2022/12/25 07:03:18;;;;;;;7.37;3.40;;;;;;;8.32;59.64;100358.13;4333932;33;20099;-86
2022/12/25 07:05:45;;;;;;;5.47;2.50;;;;;;;8.47;59.65;100369.19;4321974;33;20105;-86
2022/12/25 07:08:11;;;;;;;7.30;2.60;;;;;;;8.64;59.66;100358.56;4334226;33;20756;-85
2022/12/25 07:10:36;;;;;;;7.40;2.80;;;;;;;8.78;59.67;100364.44;4334190;33;20127;-85
2022/12/25 07:13:02;;;;;;;8.65;3.12;;;;;;;8.76;59.67;100374.84;4333976;33;20083;-85
2022/12/25 07:15:27;;;;;;;13.13;5.55;;;;;;;8.68;59.66;100375.81;4321957;33;20178;-86
2022/12/25 07:17:52;;;;;;;19.65;6.87;;;;;;;8.56;59.65;100387.25;4333986;33;20143;-85
2022/12/25 07:20:18;;;;;;;14.20;6.95;;;;;;;8.53;59.66;100388.12;4334085;33;20192;-86
2022/12/25 07:22:43;;;;;;;12.82;7.00;;;;;;;8.64;59.66;100403.56;4334262;33;20171;-86
2022/12/25 07:25:09;;;;;;;14.50;6.18;;;;;;;9.01;59.68;100409.09;4321464;33;20228;-85
2022/12/25 07:27:40;;;;;;;11.65;5.65;;;;;;;9.02;59.68;100397.81;4333793;33;20091;-84
2022/12/25 07:30:27;;;;;;;;;;;;;;;;;;;;;
2022/12/25 07:33:30;;;;;;;;;;;;;;;;;;;;;
2022/12/25 07:36:19;;;;;;;13.25;5.35;;;;;;;8.99;59.68;100400.47;4332897;33;35378;-86
2022/12/25 07:39:22;;;;;;;;;;;;;;;;;;;;;
2022/12/25 07:41:48;;;;;;;14.07;5.85;;;;;;;8.77;59.67;100425.00;4332696;33;34450;-86
2022/12/25 07:44:14;;;;;;;16.92;5.62;;;;;;;8.77;59.67;100418.09;4321866;33;20371;-86
2022/12/25 07:46:39;;;;;;;13.60;5.85;;;;;;;8.88;59.67;100420.53;4309477;33;20118;-86
2022/12/25 07:49:05;;;;;;;11.18;5.22;;;;;;;8.82;59.67;100426.66;4321770;33;20449;-85
2022/12/25 07:51:30;;;;;;;11.70;5.80;;;;;;;9.08;59.68;100441.00;4309918;33;20739;-86
2022/12/25 07:53:56;;;;;;;10.95;5.12;;;;;;;9.16;59.68;100442.59;4309587;33;20474;-85
2022/12/25 07:56:21;;;;;;;12.13;5.62;;;;;;;9.18;59.68;100443.44;4309529;33;20492;-85
2022/12/25 07:58:47;;;;;;;13.85;5.87;;;;;;;9.34;59.70;100445.78;4321344;33;20453;-85
2022/12/25 08:01:22;;;;;;;14.13;6.47;;;;;;;9.25;59.69;100453.75;4332787;33;20166;-85
2022/12/25 08:04:07;;;;;;;15.35;6.32;;;;;;;9.32;59.69;100451.03;4333761;33;20114;-86
2022/12/25 08:06:33;;;;;;;13.77;5.15;;;;;;;9.45;59.70;100452.53;4333786;33;20096;-86
2022/12/25 08:09:04;;;;;;;13.05;6.00;;;;;;;9.44;59.70;100447.34;4322346;33;20103;-85
2022/12/25 08:11:29;;;;;;;10.55;4.80;;;;;;;9.45;59.70;100455.13;4321872;33;20742;-86
2022/12/25 08:13:55;;;;;;;10.20;5.05;;;;;;;9.57;59.71;100454.06;4322204;33;20114;-85
2022/12/25 08:16:20;;;;;;;12.57;5.60;;;;;;;9.60;59.72;100455.75;4333761;33;20089;-85
2022/12/25 08:18:46;;;;;;;19.02;7.15;;;;;;;9.63;59.70;100458.31;4321515;33;20099;-85
2022/12/25 08:21:12;;;;;;;20.65;7.53;;;;;;;9.75;59.72;100460.72;4333528;33;20167;-86
2022/12/25 08:23:40;;;;;;;15.35;6.20;;;;;;;9.92;59.73;100463.84;4333595;33;20118;-85
2022/12/25 08:26:07;;;;;;;18.87;5.35;;;;;;;10.02;59.73;100459.38;4333610;33;20543;-85
2022/12/25 08:28:32;;;;;;;11.82;4.37;;;;;;;10.29;59.75;100447.59;4333618;33;20099;-85
2022/12/25 08:30:58;;;;;;;7.47;3.53;;;;;;;10.27;59.75;100458.03;4333748;33;20151;-85
2022/12/25 08:33:23;;;;;;;12.90;3.92;;;;;;;10.33;59.75;100457.91;4333855;33;20385;-84
2022/12/25 08:35:49;;;;;;;9.98;4.03;;;;;;;10.45;59.75;100465.50;4321519;33;20409;-86
2022/12/25 08:38:14;;;;;;;12.13;4.28;;;;;;;10.67;59.77;100450.28;4333602;33;20096;-86
2022/12/25 08:40:40;;;;;;;12.25;5.87;;;;;;;10.81;59.78;100459.53;4333568;33;20175;-86
2022/12/25 08:43:06;;;;;;;16.48;7.45;;;;;;;10.97;59.78;100451.38;4334673;33;20466;-86
2022/12/25 08:45:31;;;;;;;15.10;6.87;;;;;;;10.99;59.79;100457.41;4321230;33;20433;-85
2022/12/25 08:47:57;;;;;;;14.60;7.07;;;;;;;11.15;59.79;100450.09;4309235;33;20536;-86
2022/12/25 08:50:22;;;;;;;14.02;6.75;;;;;;;11.21;59.80;100460.37;4309338;33;20492;-85
2022/12/25 08:52:48;;;;;;;12.35;6.00;;;;;;;11.31;59.81;100459.25;4321054;33;20080;-86
2022/12/25 08:55:13;;;;;;;15.40;6.28;;;;;;;11.34;59.81;100453.97;4309110;33;20099;-86
2022/12/25 08:57:39;;;;;;;17.33;6.68;;;;;;;11.48;59.82;100458.00;4321094;33;20100;-86
2022/12/25 09:00:05;;;;;;;17.00;7.32;;;;;;;11.61;59.82;100456.81;4321096;33;20930;-85
2022/12/25 09:02:30;;;;;;;13.32;6.03;;;;;;;11.53;59.82;100456.97;4309056;33;20424;-86
2022/12/25 09:04:56;;;;;;;11.98;6.22;;;;;;;11.60;59.83;100465.53;4321074;33;20088;-86
2022/12/25 09:07:21;;;;;;;13.45;5.78;;;;;;;11.69;59.83;100465.28;4320867;33;20107;-86
2022/12/25 09:09:47;;;;;;;10.25;5.32;;;;;;;11.91;59.84;100465.62;4321034;33;20161;-85
2022/12/25 09:12:12;;;;;;;10.55;5.72;;;;;;;12.02;59.84;100463.59;4308431;33;20114;-85
2022/12/25 09:14:38;;;;;;;11.45;5.45;;;;;;;11.95;59.84;100467.25;4320521;33;20431;-85
2022/12/25 09:17:03;;;;;;;13.18;5.50;;;;;;;12.04;59.84;100460.94;4332350;33;20119;-85
2022/12/25 09:19:29;;;;;;;12.25;5.40;;;;;;;12.00;59.85;100457.56;4320830;33;20108;-85
2022/12/25 09:21:55;;;;;;;10.73;4.57;;;;;;;12.06;59.85;100454.78;4320439;33;20151;-84
2022/12/25 09:24:20;;;;;;;7.07;4.12;;;;;;;12.03;59.84;100456.63;4332509;33;20150;-84
2022/12/25 09:26:45;;;;;;;7.87;3.65;;;;;;;12.20;59.84;100457.87;4320243;33;20472;-84
2022/12/25 09:29:11;;;;;;;9.75;3.92;;;;;;;12.43;59.86;100454.63;4320362;33;20091;-84
2022/12/25 09:31:36;;;;;;;7.80;4.20;;;;;;;12.69;59.88;100451.25;4307768;33;20122;-83
2022/12/25 09:34:02;;;;;;;8.18;3.83;;;;;;;12.53;59.87;100453.47;4322914;33;195701;-83
2022/12/25 09:36:27;;;;;;;12.23;6.10;;;;;;;12.78;59.88;100453.63;4321135;33;20131;-85
2022/12/25 09:38:53;;;;;;;14.75;5.95;;;;;;;12.75;59.89;100461.53;4332783;33;20389;-85
2022/12/25 09:41:32;;;;;;;12.57;7.87;;;;;;;13.02;59.89;100457.25;4320721;33;20098;-86
2022/12/25 09:44:09;;;;;;;9.93;5.53;;;;;;;12.93;59.89;100456.66;4320708;33;20110;-86
2022/12/25 09:46:46;;;;;;;8.45;3.20;;;;;;;12.91;59.89;100461.94;4332687;33;20112;-86
2022/12/25 09:49:22;;;;;;;6.62;2.85;;;;;;;13.02;59.89;100465.09;4308036;33;20123;-84
2022/12/25 09:51:52;;;;;;;7.50;3.05;;;;;;;13.12;59.91;100458.66;4332805;33;20096;-85
2022/12/25 09:54:20;;;;;;;7.47;2.78;;;;;;;13.24;59.91;100465.28;4320455;33;20091;-86
2022/12/25 09:56:45;;;;;;;11.77;3.25;;;;;;;13.25;59.91;100468.75;4308161;33;20103;-84
2022/12/25 09:59:31;;;;;;;9.27;2.78;;;;;;;13.06;59.90;100471.94;4320367;33;20178;-85
2022/12/25 10:02:12;;;;;;;7.50;2.53;;;;;;;13.22;59.90;100467.09;4307963;33;20454;-85
2022/12/25 10:04:52;;;;;;;4.97;2.05;;;;;;;13.17;59.90;100466.34;4320323;33;20099;-85
2022/12/25 10:07:36;;;;;;;5.50;2.40;;;;;;;13.00;59.90;100460.78;4320897;33;20111;-87
2022/12/25 10:10:39;;;;;;;6.43;2.42;;;;;;;12.89;59.88;100466.34;4320788;33;20508;-87
2022/12/25 10:13:13;;;;;;;9.13;2.53;;;;;;;13.00;59.90;100460.78;4334346;33;20155;-87
2022/12/25 10:15:45;;;;;;;4.72;2.22;;;;;;;13.34;59.92;100448.41;4320889;33;20092;-87
2022/12/25 10:18:29;;;;;;;6.30;2.37;;;;;;;13.35;59.92;100437.06;4321249;33;20546;-88
2022/12/25 10:20:55;;;;;;;5.85;1.50;;;;;;;13.54;59.92;100432.09;4321382;33;20779;-87
2022/12/25 10:23:33;;;;;;;3.28;1.52;;;;;;;13.71;59.93;100439.34;4333071;33;20100;-88
2022/12/25 10:25:58;;;;;;;4.43;1.87;;;;;;;13.58;59.93;100438.06;4320861;33;20068;-88
2022/12/25 10:28:36;;;;;;;6.93;1.70;;;;;;;13.59;59.93;100434.53;4309969;33;20100;-88
2022/12/25 10:31:13;;;;;;;6.70;2.45;;;;;;;13.75;59.94;100436.59;4335181;33;20104;-87
2022/12/25 10:33:38;;;;;;;11.80;2.70;;;;;;;13.60;59.93;100431.00;4311228;33;20151;-87
2022/12/25 10:36:05;;;;;;;6.87;2.20;;;;;;;13.62;59.93;100423.97;4311173;33;20124;-88
2022/12/25 10:38:31;;;;;;;8.00;3.05;;;;;;;13.82;59.94;100429.38;4335733;33;20491;-87
2022/12/25 10:41:17;;;;;;;9.65;3.17;;;;;;;14.01;59.95;100432.22;4322747;33;20100;-86
2022/12/25 10:43:54;;;;;;;8.05;3.12;;;;;;;14.03;59.96;100431.25;4334757;33;20166;-87
2022/12/25 10:46:20;;;;;;;8.93;2.00;;;;;;;14.17;59.95;100422.88;4310496;33;20071;-87
2022/12/25 10:48:58;;;;;;;9.68;2.12;;;;;;;14.07;59.95;100421.53;4334697;33;20134;-86
2022/12/25 10:51:35;;;;;;;5.93;1.60;;;;;;;14.24;59.96;100424.41;4322503;33;20131;-87
2022/12/25 10:54:01;;;;;;;3.85;1.15;;;;;;;14.54;59.97;100422.44;4310555;33;20145;-86
2022/12/25 10:56:26;;;;;;;10.60;1.60;;;;;;;14.37;59.96;100420.41;4335665;33;20157;-89
2022/12/25 10:59:05;;;;;;;5.43;1.77;;;;;;;14.41;59.98;100429.84;4335274;33;20147;-87
2022/12/25 11:01:31;;;;;;;3.70;1.27;;;;;;;14.45;59.97;100419.31;4310893;33;20134;-88
2022/12/25 11:03:56;;;;;;;5.97;1.95;;;;;;;14.42;59.98;100413.22;4310948;33;20091;-87
2022/12/25 11:06:26;;;;;;;4.45;1.30;;;;;;;14.42;59.98;100409.75;4335026;33;20084;-87
2022/12/25 11:08:56;;;;;;;3.67;1.30;;;;;;;14.74;60.00;100405.97;4334990;33;20116;-87
2022/12/25 11:11:21;;;;;;;3.97;1.20;;;;;;;14.50;59.98;100401.66;4334487;33;20162;-87
2022/12/25 11:13:49;;;;;;;5.18;1.48;;;;;;;14.76;59.99;100395.41;4309867;33;20143;-87
2022/12/25 11:16:26;;;;;;;3.97;1.48;;;;;;;14.97;60.00;100392.81;4321926;33;20100;-87
2022/12/25 11:18:52;;;;;;;5.18;1.25;;;;;;;14.93;60.00;100391.22;4334406;33;20183;-87
2022/12/25 11:21:23;;;;;;;5.60;1.45;;;;;;;14.97;60.00;100391.97;4322426;33;20273;-87
2022/12/25 11:23:50;;;;;;;6.75;1.20;;;;;;;15.05;60.01;100392.50;4329924;33;20126;-87
2022/12/25 11:26:16;;;;;;;4.37;1.00;;;;;;;15.07;60.00;100384.56;4334320;33;20151;-87
2022/12/25 11:28:42;;;;;;;5.30;0.90;;;;;;;15.08;60.00;100378.41;4309675;33;20080;-88
2022/12/25 11:31:13;;;;;;;6.57;1.77;;;;;;;14.84;59.99;100373.22;4298059;33;20072;-87
2022/12/25 11:33:44;;;;;;;6.55;1.10;;;;;;;14.98;60.00;100380.56;4310194;33;20095;-88
2022/12/25 11:36:25;;;;;;;5.15;1.23;;;;;;;15.01;60.00;100381.28;4322499;33;20119;-87
2022/12/25 11:38:51;;;;;;;6.30;2.33;;;;;;;15.15;60.01;100377.28;4310028;33;20112;-87
2022/12/25 11:41:19;;;;;;;3.78;1.10;;;;;;;15.29;60.02;100380.16;4309989;33;20130;-87
2022/12/25 11:43:52;;;;;;;3.75;1.20;;;;;;;15.08;60.00;100381.88;4298470;33;20155;-87
2022/12/25 11:46:20;;;;;;;3.65;1.50;;;;;;;15.34;60.02;100376.41;4309286;33;20170;-87
2022/12/25 11:48:55;;;;;;;4.97;1.00;;;;;;;15.36;60.02;100369.34;4309740;33;20133;-87
2022/12/25 11:51:21;;;;;;;3.37;1.15;;;;;;;15.51;60.03;100377.50;4310294;33;20143;-87
2022/12/25 11:53:50;;;;;;;4.85;1.05;;;;;;;15.40;60.03;100377.97;4309533;33;20606;-88
2022/12/25 11:56:27;;;;;;;4.75;1.25;;;;;;;15.30;60.02;100374.84;4309695;33;20445;-87
2022/12/25 11:58:59;;;;;;;6.50;1.45;;;;;;;15.45;60.03;100370.75;4310216;33;20860;-87
2022/12/25 12:01:37;;;;;;;6.65;2.15;;;;;;;15.71;60.05;100371.44;4309997;33;20257;-87
2022/12/25 12:04:05;;;;;;;7.40;2.75;;;;;;;15.85;60.04;100369.94;4334887;33;20095;-88
2022/12/25 12:06:51;;;;;;;9.35;3.35;;;;;;;15.80;60.05;100368.41;4310046;33;20111;-88
2022/12/25 12:09:26;;;;;;;9.93;3.40;;;;;;;15.96;60.05;100359.78;4310667;33;20108;-87
2022/12/25 12:12:18;;;;;;;10.77;4.47;;;;;;;16.13;60.06;100364.28;4321850;33;20138;-88
2022/12/25 12:14:52;;;;;;;11.55;3.80;;;;;;;16.19;60.07;100363.16;4312482;33;20100;-88
2022/12/25 12:17:17;;;;;;;6.90;2.75;;;;;;;16.18;60.07;100364.94;4309917;33;20087;-86
2022/12/25 12:19:43;;;;;;;8.77;3.20;;;;;;;16.13;60.06;100366.91;4296877;33;20194;-87
2022/12/25 12:22:20;;;;;;;9.23;2.92;;;;;;;16.02;60.07;100373.56;4294339;33;20146;-88
2022/12/25 12:24:48;;;;;;;5.75;2.60;;;;;;;16.04;60.06;100369.94;4309999;33;20146;-89
2022/12/25 12:27:24;;;;;;;8.55;2.97;;;;;;;16.13;60.06;100372.19;4310776;33;20205;-89
2022/12/25 12:29:52;;;;;;;7.90;2.33;;;;;;;16.36;60.08;100370.28;4308858;33;20103;-87
2022/12/25 12:32:27;;;;;;;7.10;2.60;;;;;;;16.33;60.08;100373.91;4296710;33;20123;-88
2022/12/25 12:34:52;;;;;;;7.37;3.22;;;;;;;16.57;60.09;100369.28;4333731;33;20225;-86
2022/12/25 12:37:24;;;;;;;6.82;2.50;;;;;;;16.50;60.09;100379.22;4315413;33;20107;-88
2022/12/25 12:39:52;;;;;;;7.07;2.12;;;;;;;16.61;60.09;100370.84;4319566;33;20120;-88
2022/12/25 12:42:19;;;;;;;8.52;2.72;;;;;;;16.62;60.10;100364.66;4298419;33;20128;-88
2022/12/25 12:44:45;;;;;;;8.23;2.90;;;;;;;16.38;60.08;100371.06;4298239;33;20092;-86
2022/12/25 12:47:36;;;;;;;5.47;1.65;;;;;;;16.39;60.07;100370.13;4321949;33;20727;-89
2022/12/25 12:50:01;;;;;;;5.87;1.65;;;;;;;16.54;60.08;100365.00;4321523;33;20120;-89
2022/12/25 12:52:31;;;;;;;6.15;1.67;;;;;;;16.53;60.09;100368.56;4295893;33;20104;-89
2022/12/25 12:54:59;;;;;;;9.93;2.03;;;;;;;16.35;60.08;100372.06;4321787;33;20061;-89
2022/12/25 12:57:28;;;;;;;8.63;2.67;;;;;;;16.46;60.08;100379.44;4334367;33;20083;-88
2022/12/25 12:59:55;;;;;;;12.70;2.50;;;;;;;16.17;60.07;100384.25;4315002;33;20071;-88
2022/12/25 13:02:42;;;;;;;9.55;2.62;;;;;;;16.20;60.08;100376.22;4297643;33;20863;-89
2022/12/25 13:05:17;;;;;;;10.05;3.00;;;;;;;16.33;60.08;100388.81;4334394;33;20487;-89
2022/12/25 13:08:10;;;;;;;7.68;3.12;;;;;;;16.39;60.08;100386.75;4321963;33;20151;-88
2022/12/25 13:10:40;;;;;;;8.25;3.15;;;;;;;16.46;60.08;100395.19;4295660;33;20138;-89
2022/12/25 13:13:11;;;;;;;;;;;;;;;16.23;60.08;100394.47;4296058;33;20129;-88
2022/12/25 13:15:36;;;;;;;8.45;2.25;;;;;;;16.27;60.07;100398.66;4334067;33;19989;-88
2022/12/25 13:18:05;;;;;;;5.37;2.03;;;;;;;16.25;60.08;100383.88;4321811;33;20155;-88
2022/12/25 13:20:53;;;;;;;6.70;2.25;;;;;;;16.37;60.08;100382.50;4315491;33;20164;-89
2022/12/25 13:23:27;;;;;;;5.10;2.15;;;;;;;16.28;60.07;100381.97;4310760;33;20481;-88